Now boarding.
Please wait.

menu

Air Malaysia

Air Malaysia Virtual is a virtual airline based in Kuala Lumpur and established in 2012. We operate heavily in the Southeast Asia region and also in some parts of Europe. We operate a wide range of aircraft, such as the Airbus A320, Airbus A330 and the Boeing 767-300ER. Aircrafts such as the Boeing 777-200LRF, Boeing 747-8F and the MD-82 are also operated by Air Malaysia’s subsidaries. We use a very sophisticated yet very user friendly Acars system that is used to record and submit your pilot report, also known as PIREPS, to the website once you have safely landed your aircraft at your destination.

  • The pilot must be over the age of 13
  • Must own FSX/ P3D
  • Must fly every 30 days

Fly Air Malaysia!


Vatsim Radar

CID Callsign Departure Destination Aircraft Pilot Rating

Fleet


Hubs

WMKK Kuala Lumpur International Airport

Airport Information METAR Runway Information

Current Weather:

WMKK 130630Z 22005KT 140V260 9999 FEW017CB SCT018 BKN280 32/25 Q1010 NOSIG

Runway Facts:

Direction Length m Length ft Elevation m Elevation ft Surface
14L/32R 4,124 13,530 21 m 70 ft Concrete
14R/32L 4,056 13,307 21 m 70 ft Concrete
15/33 4,056 13,307 21 m 70 ft Concrete